< Typhoon 198502 1985 Season Typhoon 198504 >
Typhoon 198503 (GAY)
General InformationTrack Information on Google MapsDetailed Wind InformationList of All Images || Disaster Info.ResourceGoogle EarthGE AnimationAtom FeedGeoJSON
Detalied Best Track (Time Zone = UTC)
Year Month Day Hour Lat. Long. Pressure (hPa) Wind (kt) Class Image Chart
1985 5 20 00 12.0 132.0 1004 0 2 Image Chart
1985 5 20 06 12.3 132.0 1002 0 2 Image Chart
1985 5 20 12 12.5 132.0 1002 0 2 Image Chart
1985 5 20 18 12.8 132.0 1000 0 2 Image Chart
1985 5 21 00 13.1 132.1 998 40 3 Image Chart
1985 5 21 06 13.7 132.2 998 45 3 Image Chart
1985 5 21 12 14.2 132.0 990 45 3 Image Chart
1985 5 21 18 14.7 131.8 990 45 3 Image Chart
1985 5 22 00 15.3 131.6 990 45 3 Image Chart
1985 5 22 06 16.3 131.5 990 45 3 Image Chart
1985 5 22 12 16.5 131.3 990 45 3 Image Chart
1985 5 22 18 17.0 131.0 990 45 3 Image Chart
1985 5 23 00 17.8 130.4 985 50 4 Image Chart
1985 5 23 06 18.6 129.8 980 55 4 Image Chart
1985 5 23 12 19.1 129.4 970 65 5 Image Chart
1985 5 23 18 19.8 128.8 970 65 5 Image Chart
1985 5 24 00 20.5 128.8 955 75 5 Image Chart
1985 5 24 06 21.6 129.1 950 80 5 Image Chart
1985 5 24 12 22.4 130.2 955 80 5 Image Chart
1985 5 24 18 23.4 131.0 960 80 5 Image Chart
1985 5 25 00 24.8 131.9 965 80 5 Image Chart
1985 5 25 06 26.0 133.1 970 80 5 Image Chart
1985 5 25 12 27.8 134.8 975 70 5 Image Chart
1985 5 25 18 29.3 136.9 980 60 4 Image Chart
1985 5 26 00 30.4 138.6 985 55 4 Image Chart
1985 5 26 06 30.7 139.4 985 50 4 Image Chart
1985 5 26 12 30.5 140.5 992 0 6 Image Chart
1985 5 26 18 30.0 141.6 994 0 6 Image Chart
1985 5 27 00 30.0 143.5 996 0 6 Image Chart
1985 5 27 06 30.0 145.0 996 0 6 Image Chart
1985 5 27 12 30.0 147.0 998 0 6 Image Chart
1985 5 27 18 30.0 149.0 1000 0 6 Image Chart
1985 5 28 00 30.4 151.5 1002 0 6 Image Chart
1985 5 28 06 31.8 154.0 1004 0 6 Image Chart
1985 5 28 12 32.5 156.5 1008 0 6 Image Chart
Japan Meteorological Agency Best Track Data | Correction Date : 1992-10-21
< Typhoon 198502 1985 Season Typhoon 198504 >

Help